Time;durP1;ratioP1;P1;durP2;ratioP2;P2;SDS_P1;SDS_P2;PMS_P1;PMS_P2;Temp;Humidity;BMP_temperature;BMP_pressure;BME280_temperature;BME280_humidity;BME280_pressure;Samples;Min_cycle;Max_cycle;Signal;HPM_P1;HPM_P2
2022/01/31 00:02:06;;;;;;;13.20;3.80;;;;;;;;;;5107793;28;20051;-61
2022/01/31 00:04:32;;;;;;;12.32;3.65;;;;;;;;;;5110065;28;20054;-60
2022/01/31 00:06:58;;;;;;;11.43;3.30;;;;;;;;;;5107661;28;20522;-61
2022/01/31 00:09:25;;;;;;;12.00;3.42;;;;;;;;;;5109850;28;20100;-61
2022/01/31 00:11:59;;;;;;;11.73;3.53;;;;;;;;;;5108141;28;20536;-60
2022/01/31 00:17:03;;;;;;;13.73;4.28;;;;;;;;;;5109014;28;20082;-61
2022/01/31 00:19:29;;;;;;;13.63;3.53;;;;;;;;;;5110220;28;20377;-60
2022/01/31 00:21:55;;;;;;;12.73;2.92;;;;;;;;;;5107866;28;20070;-61
2022/01/31 00:24:22;;;;;;;11.02;3.03;;;;;;;;;;5107209;28;20052;-61
2022/01/31 00:26:48;;;;;;;12.30;3.47;;;;;;;;;;5107805;28;20383;-60
2022/01/31 00:29:14;;;;;;;12.52;3.15;;;;;;;;;;5109237;28;20062;-61
2022/01/31 00:31:40;;;;;;;13.23;3.40;;;;;;;;;;5109296;28;20046;-61
2022/01/31 00:34:06;;;;;;;11.85;3.22;;;;;;;;;;5109518;28;20079;-61
2022/01/31 00:36:32;;;;;;;12.95;3.63;;;;;;;;;;5088716;28;20082;-60
2022/01/31 00:38:58;;;;;;;13.07;3.65;;;;;;;;;;5109282;28;20039;-61
2022/01/31 00:41:24;;;;;;;11.90;3.17;;;;;;;;;;5109018;28;20043;-61
2022/01/31 00:43:58;;;;;;;11.40;3.22;;;;;;;;;;5109184;28;20048;-61
2022/01/31 00:46:31;;;;;;;11.40;3.08;;;;;;;;;;5108146;28;20130;-60
2022/01/31 00:48:57;;;;;;;10.23;3.25;;;;;;;;;;5107882;28;20119;-61
2022/01/31 00:51:23;;;;;;;11.85;3.35;;;;;;;;;;5108734;28;20036;-60
2022/01/31 00:53:49;;;;;;;12.38;3.63;;;;;;;;;;5109009;28;20043;-60
2022/01/31 00:56:15;;;;;;;15.25;3.95;;;;;;;;;;5107620;28;20063;-61
2022/01/31 00:58:41;;;;;;;10.93;2.90;;;;;;;;;;5108977;28;20371;-60
2022/01/31 01:01:07;;;;;;;11.93;3.85;;;;;;;;;;5109616;28;20043;-61
2022/01/31 01:03:33;;;;;;;11.68;3.38;;;;;;;;;;5108475;28;20048;-61
2022/01/31 01:05:59;;;;;;;10.90;3.40;;;;;;;;;;5108267;28;20046;-61
2022/01/31 01:08:25;;;;;;;11.07;3.08;;;;;;;;;;5107447;28;20111;-61
2022/01/31 01:10:51;;;;;;;12.68;3.90;;;;;;;;;;5108475;28;20051;-61
2022/01/31 01:13:17;;;;;;;10.25;3.42;;;;;;;;;;5106759;28;20112;-61
2022/01/31 01:15:43;;;;;;;11.90;3.53;;;;;;;;;;5109894;28;20089;-61
2022/01/31 01:18:09;;;;;;;10.65;3.25;;;;;;;;;;5109435;28;20036;-61
2022/01/31 01:20:35;;;;;;;10.85;2.95;;;;;;;;;;5091438;28;20116;-61
2022/01/31 01:23:01;;;;;;;11.02;3.20;;;;;;;;;;5107573;28;20403;-61
2022/01/31 01:25:27;;;;;;;12.35;3.55;;;;;;;;;;5108627;28;20134;-61
2022/01/31 01:27:54;;;;;;;12.35;3.35;;;;;;;;;;5107802;28;20474;-61
2022/01/31 01:30:20;;;;;;;11.70;3.10;;;;;;;;;;5109539;28;20055;-61
2022/01/31 01:33:09;;;;;;;11.48;3.35;;;;;;;;;;5109170;28;20043;-61
2022/01/31 01:35:38;;;;;;;10.02;2.95;;;;;;;;;;5109740;28;20055;-61
2022/01/31 01:38:06;;;;;;;10.98;3.30;;;;;;;;;;5112970;28;20046;-61
2022/01/31 01:40:33;;;;;;;10.77;3.60;;;;;;;;;;5112479;28;20068;-61
2022/01/31 01:42:59;;;;;;;11.98;3.40;;;;;;;;;;5111390;28;20483;-61
2022/01/31 01:45:25;;;;;;;12.63;3.72;;;;;;;;;;5113578;28;20032;-61
2022/01/31 01:47:51;;;;;;;9.95;3.63;;;;;;;;;;5113016;28;20487;-61
2022/01/31 01:50:17;;;;;;;10.50;3.50;;;;;;;;;;5113138;28;20039;-61
2022/01/31 01:52:43;;;;;;;10.75;3.95;;;;;;;;;;5112673;28;20046;-61
2022/01/31 01:55:10;;;;;;;12.02;3.78;;;;;;;;;;5094583;28;20051;-61
2022/01/31 01:57:36;;;;;;;12.27;3.92;;;;;;;;;;5112904;28;20035;-61
2022/01/31 02:00:02;;;;;;;13.20;4.10;;;;;;;;;;5092816;28;20399;-61
2022/01/31 02:02:28;;;;;;;9.38;3.40;;;;;;;;;;5092538;28;20463;-61
2022/01/31 02:04:54;;;;;;;11.63;3.42;;;;;;;;;;5092782;28;20084;-61
2022/01/31 02:07:20;;;;;;;11.32;4.05;;;;;;;;;;5111945;28;20054;-61
2022/01/31 02:09:53;;;;;;;9.60;3.45;;;;;;;;;;5112911;28;20371;-61
2022/01/31 02:12:19;;;;;;;11.43;3.60;;;;;;;;;;5112500;28;20106;-61
2022/01/31 02:14:45;;;;;;;11.15;3.50;;;;;;;;;;5112267;28;20062;-61
2022/01/31 02:17:11;;;;;;;9.63;3.75;;;;;;;;;;5111086;28;20383;-61
2022/01/31 02:19:38;;;;;;;8.63;3.47;;;;;;;;;;5111233;28;20050;-62
2022/01/31 02:22:04;;;;;;;9.40;3.45;;;;;;;;;;5112062;28;20130;-61
2022/01/31 02:24:31;;;;;;;11.70;4.18;;;;;;;;;;5110940;28;20147;-62
2022/01/31 02:26:57;;;;;;;11.20;3.45;;;;;;;;;;5110463;28;20097;-61
2022/01/31 02:29:23;;;;;;;10.70;3.80;;;;;;;;;;5112199;28;20039;-61
2022/01/31 02:31:50;;;;;;;10.90;3.70;;;;;;;;;;5110104;28;20043;-61
2022/01/31 02:34:16;;;;;;;8.77;3.58;;;;;;;;;;5111185;28;20114;-61
2022/01/31 02:36:42;;;;;;;9.50;3.45;;;;;;;;;;5109837;28;20047;-61
2022/01/31 02:39:08;;;;;;;7.68;3.30;;;;;;;;;;5110967;28;20067;-61
2022/01/31 02:41:44;;;;;;;9.98;3.22;;;;;;;;;;5110668;28;20089;-61
2022/01/31 02:44:15;;;;;;;9.27;3.65;;;;;;;;;;5124627;27;20064;-61
2022/01/31 02:46:47;;;;;;;11.05;4.05;;;;;;;;;;5111424;28;20032;-61
2022/01/31 02:49:15;;;;;;;11.55;3.55;;;;;;;;;;5110272;28;20402;-61
2022/01/31 02:51:46;;;;;;;7.70;2.85;;;;;;;;;;5111569;27;20058;-61
2022/01/31 02:54:12;;;;;;;8.38;3.30;;;;;;;;;;5110877;28;20050;-61
2022/01/31 02:56:40;;;;;;;9.82;3.50;;;;;;;;;;5110363;28;20104;-61
2022/01/31 02:59:06;;;;;;;9.90;3.40;;;;;;;;;;5111682;28;20452;-61
2022/01/31 03:01:36;;;;;;;8.93;3.67;;;;;;;;;;5110722;28;20506;-61
2022/01/31 03:04:02;;;;;;;8.63;2.80;;;;;;;;;;5111560;28;20043;-61
2022/01/31 03:06:28;;;;;;;8.48;3.03;;;;;;;;;;5111355;28;20096;-61
2022/01/31 03:08:54;;;;;;;9.82;3.42;;;;;;;;;;5109848;28;20357;-61
2022/01/31 03:11:20;;;;;;;7.80;2.92;;;;;;;;;;5109430;28;20071;-61
2022/01/31 03:13:46;;;;;;;9.23;3.28;;;;;;;;;;5110633;28;20047;-61
2022/01/31 03:16:12;;;;;;;8.38;2.97;;;;;;;;;;5111664;28;20716;-61
2022/01/31 03:18:38;;;;;;;8.02;3.03;;;;;;;;;;5093456;28;20506;-61
2022/01/31 03:21:04;;;;;;;7.65;3.13;;;;;;;;;;5111016;28;20033;-61
2022/01/31 03:23:30;;;;;;;7.80;3.13;;;;;;;;;;5111328;28;20043;-61
2022/01/31 03:25:56;;;;;;;7.20;2.67;;;;;;;;;;5111596;28;20384;-61
2022/01/31 03:28:22;;;;;;;9.23;2.75;;;;;;;;;;5111485;28;20374;-61
2022/01/31 03:30:50;;;;;;;7.57;2.70;;;;;;;;;;5110870;28;20534;-61
2022/01/31 03:33:16;;;;;;;7.68;2.97;;;;;;;;;;5111287;28;20043;-61
2022/01/31 03:35:42;;;;;;;7.15;2.63;;;;;;;;;;5111198;28;20513;-61
2022/01/31 03:38:08;;;;;;;7.35;2.67;;;;;;;;;;5110634;28;20511;-61
2022/01/31 03:40:34;;;;;;;8.63;2.60;;;;;;;;;;5110867;28;20036;-60
2022/01/31 03:43:00;;;;;;;7.35;2.45;;;;;;;;;;5110831;28;20035;-61
2022/01/31 03:45:32;;;;;;;6.70;2.60;;;;;;;;;;5111488;28;20053;-61
2022/01/31 03:48:00;;;;;;;6.93;2.25;;;;;;;;;;5092787;28;20066;-61
2022/01/31 03:50:26;;;;;;;7.80;2.80;;;;;;;;;;5109281;28;20054;-61
2022/01/31 03:52:53;;;;;;;10.00;2.67;;;;;;;;;;5110274;28;20506;-61
2022/01/31 03:55:19;;;;;;;6.90;2.10;;;;;;;;;;5108841;28;20057;-62
2022/01/31 03:57:45;;;;;;;6.18;2.13;;;;;;;;;;5110318;28;20078;-62
2022/01/31 04:00:13;;;;;;;7.63;2.00;;;;;;;;;;5109865;28;20067;-61
2022/01/31 04:02:39;;;;;;;5.93;2.28;;;;;;;;;;5092852;28;20075;-61
2022/01/31 04:05:05;;;;;;;8.93;2.38;;;;;;;;;;5108890;28;20086;-61
2022/01/31 04:07:31;;;;;;;7.90;1.98;;;;;;;;;;5109452;28;20079;-61
2022/01/31 04:09:57;;;;;;;8.32;1.98;;;;;;;;;;5108527;28;20097;-62
2022/01/31 04:12:23;;;;;;;7.28;2.10;;;;;;;;;;5109823;28;20491;-61
2022/01/31 04:14:49;;;;;;;8.05;2.47;;;;;;;;;;5109248;28;20047;-61
2022/01/31 04:17:19;;;;;;;6.78;1.85;;;;;;;;;;5109929;28;20514;-61
2022/01/31 04:19:45;;;;;;;7.50;2.10;;;;;;;;;;5108508;28;20524;-62
2022/01/31 04:22:15;;;;;;;6.25;1.92;;;;;;;;;;5109380;28;20039;-61
2022/01/31 04:24:41;;;;;;;7.88;2.25;;;;;;;;;;5110760;28;20367;-62
2022/01/31 04:27:08;;;;;;;9.40;2.25;;;;;;;;;;5108495;28;20042;-61
2022/01/31 04:29:37;;;;;;;8.90;2.05;;;;;;;;;;5110261;28;20440;-61
2022/01/31 04:32:03;;;;;;;7.05;2.00;;;;;;;;;;5108064;28;20055;-61
2022/01/31 04:34:31;;;;;;;7.35;2.00;;;;;;;;;;5108864;28;20047;-61
2022/01/31 04:36:57;;;;;;;8.38;2.00;;;;;;;;;;5108011;28;20039;-61
2022/01/31 04:39:23;;;;;;;7.45;1.75;;;;;;;;;;5107842;28;20070;-61
2022/01/31 04:41:49;;;;;;;7.20;1.90;;;;;;;;;;5109121;28;20122;-61
2022/01/31 04:44:16;;;;;;;8.82;2.22;;;;;;;;;;5110183;28;20032;-61
2022/01/31 04:46:45;;;;;;;7.03;2.33;;;;;;;;;;5109901;28;20040;-62
2022/01/31 04:49:11;;;;;;;5.85;1.60;;;;;;;;;;5110219;28;20035;-62
2022/01/31 04:51:37;;;;;;;8.60;1.77;;;;;;;;;;5108249;28;20110;-61
2022/01/31 04:54:03;;;;;;;8.25;2.10;;;;;;;;;;5108257;28;20097;-61
2022/01/31 04:56:29;;;;;;;7.80;2.00;;;;;;;;;;5108407;28;20055;-61
2022/01/31 04:58:55;;;;;;;6.90;1.98;;;;;;;;;;5109818;28;20122;-61
2022/01/31 05:01:22;;;;;;;8.02;2.35;;;;;;;;;;5109782;28;20040;-62
2022/01/31 05:03:49;;;;;;;6.78;2.00;;;;;;;;;;5109138;28;20250;-62
2022/01/31 05:06:19;;;;;;;7.65;1.90;;;;;;;;;;5109118;28;20043;-62
2022/01/31 05:08:45;;;;;;;7.28;2.22;;;;;;;;;;5109478;28;20513;-62
2022/01/31 05:11:12;;;;;;;8.32;1.92;;;;;;;;;;5092172;28;20054;-61
2022/01/31 05:13:38;;;;;;;6.30;1.85;;;;;;;;;;5114027;27;20507;-61
2022/01/31 05:16:05;;;;;;;8.77;2.13;;;;;;;;;;5113925;28;20131;-61
2022/01/31 05:18:31;;;;;;;7.88;1.92;;;;;;;;;;5113770;28;20043;-62
2022/01/31 05:20:57;;;;;;;7.15;1.80;;;;;;;;;;5095743;28;20361;-61
2022/01/31 05:23:23;;;;;;;6.18;1.77;;;;;;;;;;5113409;28;20046;-61
2022/01/31 05:25:49;;;;;;;6.85;1.83;;;;;;;;;;5111542;28;20043;-62
2022/01/31 05:28:15;;;;;;;9.10;2.20;;;;;;;;;;5113842;28;20089;-61
2022/01/31 05:30:41;;;;;;;9.02;1.75;;;;;;;;;;5113760;28;20036;-61
2022/01/31 05:33:07;;;;;;;7.40;1.55;;;;;;;;;;5113064;28;20035;-62
2022/01/31 05:35:34;;;;;;;6.60;1.70;;;;;;;;;;5113528;28;20449;-61
2022/01/31 05:38:00;;;;;;;5.43;1.52;;;;;;;;;;5111871;28;20436;-61
2022/01/31 05:40:26;;;;;;;5.95;1.48;;;;;;;;;;5112179;28;20096;-62
2022/01/31 05:42:52;;;;;;;7.30;1.95;;;;;;;;;;5112851;28;20118;-62
2022/01/31 05:45:18;;;;;;;5.85;1.73;;;;;;;;;;5111487;28;20083;-61
2022/01/31 05:47:44;;;;;;;6.65;1.73;;;;;;;;;;5092675;28;20036;-62
2022/01/31 05:50:10;;;;;;;5.88;1.60;;;;;;;;;;5093432;28;20040;-62
2022/01/31 05:52:36;;;;;;;6.07;1.70;;;;;;;;;;5112575;28;20039;-61
2022/01/31 05:55:02;;;;;;;6.40;1.65;;;;;;;;;;5113283;28;20047;-62
2022/01/31 05:57:28;;;;;;;6.00;1.70;;;;;;;;;;5112546;28;20043;-61
2022/01/31 05:59:54;;;;;;;5.88;1.55;;;;;;;;;;5111822;28;20055;-61
2022/01/31 06:02:20;;;;;;;6.82;1.80;;;;;;;;;;5112722;28;20169;-61
2022/01/31 06:04:46;;;;;;;6.88;1.63;;;;;;;;;;5111740;28;20131;-62
2022/01/31 06:07:12;;;;;;;6.97;1.70;;;;;;;;;;5111605;28;20048;-61
2022/01/31 06:09:38;;;;;;;5.95;1.40;;;;;;;;;;5111467;28;20407;-61
2022/01/31 06:12:05;;;;;;;6.00;1.50;;;;;;;;;;5111027;28;20039;-61
2022/01/31 06:14:31;;;;;;;7.30;1.77;;;;;;;;;;5112171;28;20043;-61
2022/01/31 06:16:57;;;;;;;7.10;1.70;;;;;;;;;;5112168;28;20395;-62
2022/01/31 06:19:23;;;;;;;5.90;1.40;;;;;;;;;;5112530;28;20132;-61
2022/01/31 06:21:49;;;;;;;5.00;1.48;;;;;;;;;;5111664;28;20138;-61
2022/01/31 06:24:15;;;;;;;5.70;1.27;;;;;;;;;;5112184;28;20035;-61
2022/01/31 06:26:42;;;;;;;7.03;1.73;;;;;;;;;;5112355;28;20456;-61
2022/01/31 06:29:08;;;;;;;4.80;1.50;;;;;;;;;;5112035;28;20041;-62
2022/01/31 06:31:34;;;;;;;5.65;1.45;;;;;;;;;;5111537;28;20040;-61
2022/01/31 06:34:00;;;;;;;5.93;1.48;;;;;;;;;;5111091;28;20134;-61
2022/01/31 06:36:26;;;;;;;4.85;1.25;;;;;;;;;;5110544;28;20041;-61
2022/01/31 06:38:53;;;;;;;5.30;1.50;;;;;;;;;;5111825;28;20306;-62
2022/01/31 06:41:19;;;;;;;6.28;1.38;;;;;;;;;;5090304;28;20487;-61
2022/01/31 06:43:48;;;;;;;6.80;1.23;;;;;;;;;;5097554;28;20067;-62
2022/01/31 06:46:14;;;;;;;6.93;1.27;;;;;;;;;;5111847;28;20047;-62
2022/01/31 06:48:40;;;;;;;5.43;1.60;;;;;;;;;;5111942;28;20027;-61
2022/01/31 06:51:06;;;;;;;4.75;1.20;;;;;;;;;;5111497;28;20036;-62
2022/01/31 06:53:32;;;;;;;7.20;1.50;;;;;;;;;;5111975;28;20040;-61
2022/01/31 06:55:59;;;;;;;5.75;1.35;;;;;;;;;;5110509;28;20047;-61
2022/01/31 06:58:25;;;;;;;7.13;1.40;;;;;;;;;;5111743;28;20337;-62
2022/01/31 07:00:51;;;;;;;5.97;1.17;;;;;;;;;;5111337;28;20388;-61
2022/01/31 07:03:17;;;;;;;6.47;1.38;;;;;;;;;;5111469;28;20487;-61
2022/01/31 07:05:43;;;;;;;4.72;1.30;;;;;;;;;;5111721;28;20042;-62
2022/01/31 07:08:09;;;;;;;6.30;1.27;;;;;;;;;;5111368;28;20059;-61
2022/01/31 07:10:37;;;;;;;4.68;1.20;;;;;;;;;;5111012;28;20529;-61
2022/01/31 07:13:11;;;;;;;6.00;1.55;;;;;;;;;;5111400;28;20063;-62
2022/01/31 07:15:37;;;;;;;4.10;1.00;;;;;;;;;;5110307;28;20054;-62
2022/01/31 07:18:03;;;;;;;6.30;1.63;;;;;;;;;;5092675;28;20055;-62
2022/01/31 07:20:41;;;;;;;4.28;1.25;;;;;;;;;;5109862;28;20043;-62
2022/01/31 07:23:17;;;;;;;6.68;1.45;;;;;;;;;;5092603;28;20035;-62
2022/01/31 07:25:43;;;;;;;4.25;1.20;;;;;;;;;;5091020;28;20050;-62
2022/01/31 07:28:10;;;;;;;4.25;1.33;;;;;;;;;;5102333;28;20032;-61
2022/01/31 07:30:36;;;;;;;7.13;1.70;;;;;;;;;;5111012;28;20043;-62
2022/01/31 07:33:02;;;;;;;4.80;1.08;;;;;;;;;;5109637;28;20061;-62
2022/01/31 07:35:28;;;;;;;5.93;1.20;;;;;;;;;;5110715;28;20066;-61
2022/01/31 07:37:54;;;;;;;5.53;1.20;;;;;;;;;;5110702;28;20492;-62
2022/01/31 07:40:20;;;;;;;4.20;1.05;;;;;;;;;;5110516;28;20097;-62
2022/01/31 07:42:47;;;;;;;4.82;1.20;;;;;;;;;;5109402;28;20050;-61
2022/01/31 07:45:13;;;;;;;5.05;1.15;;;;;;;;;;5109219;28;20044;-61
2022/01/31 07:47:39;;;;;;;5.03;1.20;;;;;;;;;;5109365;28;20043;-61
2022/01/31 07:50:05;;;;;;;6.30;1.20;;;;;;;;;;5109010;28;20476;-61
2022/01/31 07:52:32;;;;;;;4.88;1.15;;;;;;;;;;5110045;28;20058;-62
2022/01/31 07:54:58;;;;;;;5.68;1.33;;;;;;;;;;5109657;28;20044;-62
2022/01/31 07:57:25;;;;;;;4.80;1.40;;;;;;;;;;5108851;28;20116;-61
2022/01/31 07:59:54;;;;;;;6.90;1.20;;;;;;;;;;5110938;28;20044;-62
2022/01/31 08:02:20;;;;;;;4.00;1.05;;;;;;;;;;5109594;28;20031;-62
2022/01/31 08:04:46;;;;;;;5.85;1.33;;;;;;;;;;5108358;28;20087;-61
2022/01/31 08:07:12;;;;;;;6.20;1.02;;;;;;;;;;5109352;28;20509;-62
2022/01/31 08:09:39;;;;;;;5.03;1.30;;;;;;;;;;5110287;28;20407;-62
2022/01/31 08:12:05;;;;;;;3.83;1.00;;;;;;;;;;5110571;28;20390;-62
2022/01/31 08:14:32;;;;;;;4.70;1.30;;;;;;;;;;5109316;28;20051;-61
2022/01/31 08:16:58;;;;;;;3.70;0.95;;;;;;;;;;5109819;28;20435;-62
2022/01/31 08:19:24;;;;;;;4.10;1.35;;;;;;;;;;5109977;28;20127;-62
2022/01/31 08:21:50;;;;;;;5.65;1.30;;;;;;;;;;5107872;28;20134;-62
2022/01/31 08:24:16;;;;;;;3.88;1.00;;;;;;;;;;5108255;28;20134;-61
2022/01/31 08:26:42;;;;;;;5.10;1.33;;;;;;;;;;5110431;28;20131;-62
2022/01/31 08:29:24;;;;;;;4.63;1.13;;;;;;;;;;5109401;28;20475;-62
2022/01/31 08:31:53;;;;;;;5.10;1.42;;;;;;;;;;5109818;28;20043;-62
2022/01/31 08:34:24;;;;;;;4.03;1.25;;;;;;;;;;5108317;28;20067;-62
2022/01/31 08:36:51;;;;;;;4.57;1.17;;;;;;;;;;5102593;28;20183;-62
2022/01/31 08:39:18;;;;;;;4.75;1.10;;;;;;;;;;5110139;28;20039;-61
2022/01/31 08:41:45;;;;;;;3.72;0.95;;;;;;;;;;5109928;28;20120;-61
2022/01/31 08:44:11;;;;;;;3.58;1.00;;;;;;;;;;5110174;28;20039;-62
2022/01/31 08:46:41;;;;;;;4.38;1.20;;;;;;;;;;5109594;28;20126;-62
2022/01/31 08:49:07;;;;;;;4.72;1.02;;;;;;;;;;5090695;28;20044;-61
2022/01/31 08:51:33;;;;;;;4.38;1.15;;;;;;;;;;5109663;28;20528;-62
2022/01/31 08:53:59;;;;;;;4.82;1.20;;;;;;;;;;5108169;28;20054;-62
2022/01/31 08:56:25;;;;;;;4.57;1.17;;;;;;;;;;5109710;28;20436;-62
2022/01/31 08:58:52;;;;;;;4.38;1.00;;;;;;;;;;5108417;28;20051;-62
2022/01/31 09:01:20;;;;;;;4.95;1.17;;;;;;;;;;5108527;28;20047;-61
2022/01/31 09:06:18;;;;;;;5.75;1.20;;;;;;;;;;5107064;28;20056;-61
2022/01/31 09:08:45;;;;;;;4.32;0.98;;;;;;;;;;5107660;28;20465;-62
2022/01/31 09:11:11;;;;;;;5.82;1.20;;;;;;;;;;5109736;28;20540;-62
2022/01/31 09:13:37;;;;;;;4.93;1.10;;;;;;;;;;5108106;28;20474;-62
2022/01/31 09:16:03;;;;;;;3.30;1.00;;;;;;;;;;5109075;28;20100;-61
2022/01/31 09:18:29;;;;;;;3.92;1.17;;;;;;;;;;5108069;28;20051;-62
2022/01/31 09:20:57;;;;;;;4.95;1.15;;;;;;;;;;5108822;28;20071;-62
2022/01/31 09:23:23;;;;;;;4.93;1.30;;;;;;;;;;5107731;28;20110;-62
2022/01/31 09:25:49;;;;;;;4.88;1.27;;;;;;;;;;5107182;28;20131;-62
2022/01/31 09:28:15;;;;;;;5.72;1.40;;;;;;;;;;5108260;28;20035;-62
2022/01/31 09:30:42;;;;;;;4.78;1.05;;;;;;;;;;5107548;28;20109;-62
2022/01/31 09:33:08;;;;;;;5.65;1.50;;;;;;;;;;5091568;28;20040;-62
2022/01/31 09:35:34;;;;;;;6.32;1.27;;;;;;;;;;5106688;28;20027;-62
2022/01/31 09:38:01;;;;;;;6.95;1.50;;;;;;;;;;5109058;28;20046;-62
2022/01/31 09:40:27;;;;;;;4.25;1.17;;;;;;;;;;5109415;28;20031;-62
2022/01/31 09:45:51;;;;;;;4.97;1.10;;;;;;;;;;5107253;28;20051;-62
2022/01/31 09:50:59;;;;;;;6.63;1.65;;;;;;;;;;5088656;28;20036;-61
2022/01/31 09:53:25;;;;;;;7.22;1.60;;;;;;;;;;5088655;28;20119;-61
2022/01/31 09:55:55;;;;;;;7.38;1.65;;;;;;;;;;5088610;28;20185;-62
2022/01/31 09:58:21;;;;;;;7.82;1.58;;;;;;;;;;5111394;28;20047;-62
2022/01/31 10:00:47;;;;;;;8.98;1.80;;;;;;;;;;5112345;28;20165;-63
2022/01/31 10:03:13;;;;;;;4.95;1.40;;;;;;;;;;5111275;28;20169;-62
2022/01/31 10:05:40;;;;;;;5.80;1.40;;;;;;;;;;5112667;28;20057;-62
2022/01/31 10:08:16;;;;;;;4.70;1.35;;;;;;;;;;5110610;28;20058;-62
2022/01/31 10:10:45;;;;;;;6.18;1.50;;;;;;;;;;5112322;28;20427;-62
2022/01/31 10:18:59;;;;;;;7.00;1.38;;;;;;;;;;5112506;28;20127;-62
2022/01/31 10:21:25;;;;;;;8.60;1.70;;;;;;;;;;5111421;28;20046;-62
2022/01/31 10:23:51;;;;;;;5.32;1.52;;;;;;;;;;5110516;28;20043;-62
2022/01/31 10:26:47;;;;;;;7.07;1.60;;;;;;;;;;5112215;27;20120;-62
2022/01/31 10:29:14;;;;;;;6.65;1.52;;;;;;;;;;5029067;28;20049;-62
2022/01/31 10:32:13;;;;;;;7.65;1.88;;;;;;;;;;5027814;28;20068;-62
2022/01/31 10:34:46;;;;;;;6.78;1.52;;;;;;;;;;4970441;28;20482;-62
2022/01/31 10:37:14;;;;;;;6.50;1.50;;;;;;;;;;4953416;28;20055;-62
2022/01/31 10:53:10;;;;;;;6.93;1.73;;;;;;;;;;4941144;29;20074;-61
2022/01/31 10:55:36;;;;;;;8.85;1.70;;;;;;;;;;4951221;29;20043;-62
2022/01/31 10:58:06;;;;;;;4.75;1.20;;;;;;;;;;4934911;29;20062;-62
2022/01/31 11:00:38;;;;;;;9.40;1.40;;;;;;;;;;4951239;29;20577;-62
2022/01/31 11:03:31;;;;;;;8.07;1.83;;;;;;;;;;4963694;28;20174;-62
2022/01/31 11:05:57;;;;;;;7.00;1.60;;;;;;;;;;5018260;28;20064;-62
2022/01/31 11:08:23;;;;;;;5.68;1.63;;;;;;;;;;5048613;28;20548;-62
2022/01/31 11:10:49;;;;;;;6.30;1.48;;;;;;;;;;5073569;28;20408;-62
2022/01/31 11:13:17;;;;;;;9.63;2.17;;;;;;;;;;5100948;28;20508;-61
2022/01/31 11:15:43;;;;;;;6.80;1.67;;;;;;;;;;5111952;28;20051;-62
2022/01/31 11:18:09;;;;;;;7.20;1.58;;;;;;;;;;5110276;28;20051;-62
2022/01/31 11:20:37;;;;;;;6.03;1.45;;;;;;;;;;5093726;28;20084;-62
2022/01/31 11:23:03;;;;;;;6.30;1.60;;;;;;;;;;5110763;28;20517;-62
2022/01/31 11:25:29;;;;;;;6.57;1.40;;;;;;;;;;5110104;28;20036;-62
2022/01/31 11:27:59;;;;;;;7.50;1.73;;;;;;;;;;5111676;28;20038;-62
2022/01/31 11:30:26;;;;;;;8.15;1.40;;;;;;;;;;5110511;28;20039;-62
2022/01/31 11:32:52;;;;;;;9.05;1.55;;;;;;;;;;5111240;28;20039;-62
2022/01/31 11:35:18;;;;;;;8.27;1.90;;;;;;;;;;5109821;28;20406;-62
2022/01/31 11:37:44;;;;;;;7.10;1.48;;;;;;;;;;5110807;28;20036;-61
2022/01/31 11:40:10;;;;;;;7.78;1.63;;;;;;;;;;5111447;28;20050;-62
2022/01/31 11:42:37;;;;;;;7.95;1.75;;;;;;;;;;5093121;28;20047;-62
2022/01/31 11:45:04;;;;;;;6.05;1.70;;;;;;;;;;5109320;28;20083;-61
2022/01/31 11:47:30;;;;;;;6.63;1.33;;;;;;;;;;5109717;28;20122;-62
2022/01/31 11:49:57;;;;;;;6.75;1.33;;;;;;;;;;5111334;28;20039;-62
2022/01/31 11:52:24;;;;;;;7.13;1.40;;;;;;;;;;5110558;28;20462;-62
2022/01/31 11:55:04;;;;;;;5.85;1.60;;;;;;;;;;5110873;28;20134;-62
2022/01/31 11:57:31;;;;;;;9.32;2.10;;;;;;;;;;5072037;28;20123;-62
2022/01/31 11:59:59;;;;;;;8.50;1.50;;;;;;;;;;5090582;28;20069;-62
2022/01/31 12:02:25;;;;;;;8.50;2.10;;;;;;;;;;5089249;28;20043;-62
2022/01/31 12:04:52;;;;;;;6.53;1.52;;;;;;;;;;5090244;28;20109;-62
2022/01/31 12:07:38;;;;;;;7.63;1.52;;;;;;;;;;5106016;28;20105;-62
2022/01/31 12:10:05;;;;;;;8.98;1.77;;;;;;;;;;5087983;28;20123;-62
2022/01/31 12:12:49;;;;;;;6.90;1.60;;;;;;;;;;5110624;28;20044;-62
2022/01/31 12:15:34;;;;;;;7.88;1.52;;;;;;;;;;5110112;28;20043;-62
2022/01/31 12:18:27;;;;;;;7.47;1.35;;;;;;;;;;5108432;28;20414;-62
2022/01/31 12:23:39;;;;;;;8.95;1.75;;;;;;;;;;5090120;28;20054;-62
2022/01/31 12:26:41;;;;;;;8.13;1.55;;;;;;;;;;5090068;28;20425;-62
2022/01/31 12:29:08;;;;;;;9.50;1.80;;;;;;;;;;5030725;28;20128;-63
2022/01/31 12:31:34;;;;;;;8.10;2.50;;;;;;;;;;5030114;28;20090;-61
2022/01/31 12:34:00;;;;;;;8.85;1.70;;;;;;;;;;5047292;28;20033;-62
2022/01/31 12:36:35;;;;;;;8.15;1.80;;;;;;;;;;5046870;28;20060;-62
2022/01/31 12:39:03;;;;;;;10.65;1.70;;;;;;;;;;5047140;28;20465;-62
2022/01/31 12:41:32;;;;;;;7.05;1.65;;;;;;;;;;5046815;28;20044;-62
2022/01/31 12:44:17;;;;;;;6.47;1.50;;;;;;;;;;5047270;28;20049;-62
2022/01/31 12:46:48;;;;;;;6.15;1.40;;;;;;;;;;5047152;28;20143;-62
2022/01/31 12:49:15;;;;;;;6.53;1.50;;;;;;;;;;5030483;28;20144;-61
2022/01/31 12:51:57;;;;;;;6.70;1.67;;;;;;;;;;5030130;28;20501;-62
2022/01/31 12:54:23;;;;;;;6.13;1.60;;;;;;;;;;5046972;28;20044;-62
2022/01/31 12:56:50;;;;;;;8.60;2.10;;;;;;;;;;5046970;28;20052;-62
2022/01/31 12:59:17;;;;;;;6.45;1.30;;;;;;;;;;5046580;28;20041;-62
2022/01/31 13:01:46;;;;;;;7.60;1.38;;;;;;;;;;5030760;28;20029;-62
2022/01/31 13:04:19;;;;;;;8.10;1.65;;;;;;;;;;5093945;28;20096;-62
2022/01/31 13:06:52;;;;;;;9.75;2.38;;;;;;;;;;5108507;28;20181;-62
2022/01/31 13:09:24;;;;;;;7.65;1.70;;;;;;;;;;5109712;28;20087;-62
2022/01/31 13:12:14;;;;;;;7.78;1.58;;;;;;;;;;5109776;28;20134;-62
2022/01/31 13:14:51;;;;;;;5.85;1.63;;;;;;;;;;5110025;28;20055;-61
2022/01/31 13:17:18;;;;;;;8.88;1.60;;;;;;;;;;5109569;28;20499;-62
2022/01/31 13:19:52;;;;;;;6.25;1.42;;;;;;;;;;5109862;28;20046;-61
2022/01/31 13:22:37;;;;;;;7.00;1.80;;;;;;;;;;5107897;28;20047;-61
2022/01/31 13:25:05;;;;;;;7.80;1.75;;;;;;;;;;5109498;28;20398;-61
2022/01/31 13:27:32;;;;;;;7.80;1.50;;;;;;;;;;5109702;28;20032;-61
2022/01/31 13:29:58;;;;;;;8.50;2.03;;;;;;;;;;5109889;28;20044;-62
2022/01/31 13:32:25;;;;;;;6.57;1.50;;;;;;;;;;5111072;28;20039;-61
2022/01/31 13:34:57;;;;;;;6.75;1.48;;;;;;;;;;5095680;28;20398;-62
2022/01/31 13:37:36;;;;;;;7.88;1.67;;;;;;;;;;5113711;28;20040;-61
2022/01/31 13:40:07;;;;;;;5.55;1.55;;;;;;;;;;5112545;28;20358;-62
2022/01/31 13:42:37;;;;;;;7.93;1.70;;;;;;;;;;5113529;28;20039;-62
2022/01/31 13:45:04;;;;;;;7.30;1.50;;;;;;;;;;5112019;28;20047;-62
2022/01/31 13:47:47;;;;;;;9.15;1.88;;;;;;;;;;5111923;28;20495;-62
2022/01/31 13:50:16;;;;;;;7.53;1.52;;;;;;;;;;5112265;28;20036;-62
2022/01/31 13:53:02;;;;;;;7.28;1.80;;;;;;;;;;5094700;28;20139;-62
2022/01/31 13:55:28;;;;;;;6.50;1.65;;;;;;;;;;5112938;28;20051;-62
2022/01/31 13:57:55;;;;;;;8.00;1.75;;;;;;;;;;5111625;28;20067;-61
2022/01/31 14:00:21;;;;;;;7.45;1.52;;;;;;;;;;5113093;28;20053;-62
2022/01/31 14:03:00;;;;;;;8.75;1.80;;;;;;;;;;5113219;28;20040;-61
2022/01/31 14:05:26;;;;;;;7.43;1.55;;;;;;;;;;5102218;28;20035;-62
2022/01/31 14:08:04;;;;;;;6.20;1.30;;;;;;;;;;5110747;28;20084;-61
2022/01/31 14:10:31;;;;;;;10.15;2.35;;;;;;;;;;5113258;28;20059;-61
2022/01/31 14:13:01;;;;;;;8.05;1.63;;;;;;;;;;5112580;28;20077;-62
2022/01/31 14:15:27;;;;;;;8.10;1.63;;;;;;;;;;5111099;28;20040;-62
2022/01/31 14:17:54;;;;;;;7.88;1.85;;;;;;;;;;5112357;28;20074;-62
2022/01/31 14:20:20;;;;;;;8.35;1.58;;;;;;;;;;5111208;28;20495;-62
2022/01/31 14:22:49;;;;;;;7.20;1.60;;;;;;;;;;5111223;28;20047;-62
2022/01/31 14:25:15;;;;;;;7.90;1.77;;;;;;;;;;5111232;28;20451;-61
2022/01/31 14:27:51;;;;;;;7.30;1.67;;;;;;;;;;5110740;28;20040;-61
2022/01/31 14:30:20;;;;;;;6.97;1.65;;;;;;;;;;5111278;28;20043;-61
2022/01/31 14:32:55;;;;;;;8.80;2.00;;;;;;;;;;5093961;28;20044;-61
2022/01/31 14:35:23;;;;;;;8.70;1.83;;;;;;;;;;5110867;28;20048;-61
2022/01/31 14:37:53;;;;;;;8.95;1.85;;;;;;;;;;5110304;28;20058;-61
2022/01/31 14:40:52;;;;;;;8.07;1.52;;;;;;;;;;5111428;28;20070;-61
2022/01/31 14:48:45;;;;;;;5.80;1.30;;;;;;;;;;5049128;28;20041;-61
2022/01/31 14:51:23;;;;;;;8.63;1.80;;;;;;;;;;5049217;28;20060;-61
2022/01/31 14:53:53;;;;;;;8.45;1.65;;;;;;;;;;5032484;28;20483;-61
2022/01/31 14:56:19;;;;;;;8.45;1.80;;;;;;;;;;5047211;28;20076;-61
2022/01/31 14:58:45;;;;;;;6.70;1.70;;;;;;;;;;5045263;28;20037;-61
2022/01/31 15:01:12;;;;;;;8.20;1.65;;;;;;;;;;5024821;28;20068;-61
2022/01/31 15:03:38;;;;;;;7.93;1.60;;;;;;;;;;5041050;28;20084;-61
2022/01/31 15:06:04;;;;;;;9.13;2.10;;;;;;;;;;5048223;28;20060;-61
2022/01/31 15:08:30;;;;;;;7.03;1.70;;;;;;;;;;5010796;28;20049;-61
2022/01/31 15:10:56;;;;;;;10.00;1.83;;;;;;;;;;5029381;28;20072;-61
2022/01/31 15:13:22;;;;;;;7.00;1.70;;;;;;;;;;5045244;28;20152;-61
2022/01/31 15:15:52;;;;;;;7.70;1.50;;;;;;;;;;5032089;28;20060;-61
2022/01/31 15:18:19;;;;;;;7.00;1.80;;;;;;;;;;5032995;28;20068;-61
2022/01/31 15:20:45;;;;;;;6.40;1.50;;;;;;;;;;5048917;28;20433;-61
2022/01/31 15:23:12;;;;;;;7.60;1.60;;;;;;;;;;5084777;28;20048;-61
2022/01/31 15:25:38;;;;;;;8.13;1.67;;;;;;;;;;5111838;28;20224;-61